createdAt,value
2023-01-29T00:00:39.297Z,101790.04
2023-01-29T00:03:29.928Z,101781.48
2023-01-29T00:06:00.619Z,101775.27
2023-01-29T00:08:32.927Z,101770.38
2023-01-29T00:11:04.819Z,101763.88
2023-01-29T00:13:35.531Z,101759.31
2023-01-29T00:16:07.136Z,101756.63
2023-01-29T00:18:40.143Z,101749.30
2023-01-29T00:21:13.094Z,101746.60
2023-01-29T00:23:43.941Z,101750.08
2023-01-29T00:26:14.993Z,101749.16
2023-01-29T00:28:44.176Z,101749.34
2023-01-29T00:31:16.401Z,101743.96
2023-01-29T00:33:47.504Z,101739.39
2023-01-29T00:36:17.422Z,101734.35
2023-01-29T00:38:48.259Z,101732.14
2023-01-29T00:41:18.914Z,101732.07
2023-01-29T00:43:49.587Z,101737.85
2023-01-29T00:46:20.264Z,101740.17
2023-01-29T00:48:50.907Z,101740.83
2023-01-29T00:51:21.611Z,101740.05
2023-01-29T00:53:52.355Z,101736.03
2023-01-29T00:56:23.300Z,101728.19
2023-01-29T00:58:54.003Z,101735.16
2023-01-29T01:01:25.126Z,101727.16
2023-01-29T01:03:54.114Z,101730.48
2023-01-29T01:06:24.740Z,101728.45
2023-01-29T01:08:55.403Z,101728.82
2023-01-29T01:11:26.069Z,101728.47
2023-01-29T01:13:56.737Z,101731.99
2023-01-29T01:16:27.363Z,101732.06
2023-01-29T01:18:58.075Z,101728.41
2023-01-29T01:21:28.694Z,101722.87
2023-01-29T01:23:59.443Z,101713.85
2023-01-29T01:26:30.082Z,101715.56
2023-01-29T01:29:00.886Z,101715.42
2023-01-29T01:31:31.553Z,101708.56
2023-01-29T01:34:02.620Z,101704.27
2023-01-29T01:36:31.648Z,101703.49
2023-01-29T01:39:02.362Z,101714.73
2023-01-29T01:41:33.017Z,101716.77
2023-01-29T01:44:04.848Z,101713.29
2023-01-29T01:46:37.766Z,101717.39
2023-01-29T01:49:13.392Z,101714.56
2023-01-29T01:51:46.842Z,101715.23
2023-01-29T01:54:23.393Z,101718.75
2023-01-29T01:56:59.137Z,101715.48
2023-01-29T01:59:29.920Z,101707.80
2023-01-29T02:02:00.642Z,101706.58
2023-01-29T02:04:31.337Z,101703.19
2023-01-29T02:07:03.551Z,101700.82
2023-01-29T02:09:39.248Z,101693.34
2023-01-29T02:12:12.603Z,101694.23
2023-01-29T02:14:44.549Z,101694.10
2023-01-29T02:17:17.213Z,101699.23
2023-01-29T02:19:53.169Z,101699.89
2023-01-29T02:22:41.629Z,101701.44
2023-01-29T02:25:29.384Z,101709.73
2023-01-29T02:28:19.680Z,101715.77
2023-01-29T02:31:00.555Z,101713.14
2023-01-29T02:33:41.709Z,101708.73
2023-01-29T02:36:19.996Z,101704.72
2023-01-29T02:38:57.429Z,101703.03
2023-01-29T02:41:34.802Z,101695.23
2023-01-29T02:44:15.413Z,101684.67
2023-01-29T02:46:53.216Z,101686.33
2023-01-29T02:49:27.609Z,101690.70
2023-01-29T02:52:03.238Z,101693.15
2023-01-29T02:54:41.340Z,101690.77
2023-01-29T02:57:18.458Z,101687.95
2023-01-29T02:59:54.916Z,101681.75
2023-01-29T03:02:33.203Z,101679.25
2023-01-29T03:05:11.932Z,101682.54
2023-01-29T03:07:50.589Z,101677.86
2023-01-29T03:10:24.925Z,101675.41
2023-01-29T03:13:00.666Z,101676.11
2023-01-29T03:15:35.184Z,101675.98
2023-01-29T03:18:10.547Z,101677.85
2023-01-29T03:20:45.827Z,101678.06
2023-01-29T03:23:21.353Z,101674.77
2023-01-29T03:25:54.489Z,101671.99
2023-01-29T03:28:27.060Z,101666.06
2023-01-29T03:31:03.089Z,101666.70
2023-01-29T03:33:43.782Z,101664.21
2023-01-29T03:36:21.800Z,101662.81
2023-01-29T03:38:52.624Z,101653.11
2023-01-29T03:41:28.957Z,101645.95
2023-01-29T03:44:10.585Z,101645.37
2023-01-29T03:46:48.780Z,101647.51
2023-01-29T03:49:24.084Z,101642.86
2023-01-29T03:52:01.041Z,101644.05
2023-01-29T03:54:39.464Z,101638.29
2023-01-29T03:57:17.237Z,101639.30
2023-01-29T03:59:55.789Z,101634.68
2023-01-29T04:02:31.637Z,101632.85
2023-01-29T04:05:09.262Z,101628.42
2023-01-29T04:07:41.519Z,101622.19
2023-01-29T04:10:16.980Z,101617.61
2023-01-29T04:12:52.533Z,101612.65
2023-01-29T04:15:27.411Z,101601.36
2023-01-29T04:17:58.758Z,101601.61
2023-01-29T04:20:30.012Z,101603.77
2023-01-29T04:23:00.670Z,101594.73
2023-01-29T04:25:40.970Z,101590.99
2023-01-29T04:28:18.841Z,101590.89
2023-01-29T04:30:59.037Z,101580.75
2023-01-29T04:33:42.479Z,101574.02
2023-01-29T04:36:26.890Z,101572.69
2023-01-29T04:39:11.956Z,101573.69
2023-01-29T04:41:50.194Z,101572.66
2023-01-29T04:44:26.283Z,101576.98
2023-01-29T04:47:05.942Z,101565.84
2023-01-29T04:49:43.279Z,101565.92
2023-01-29T04:52:24.270Z,101558.86
2023-01-29T04:55:04.367Z,101559.11
2023-01-29T04:57:43.503Z,101559.59
2023-01-29T05:00:19.521Z,101558.40
2023-01-29T05:02:51.292Z,101559.97
2023-01-29T05:05:22.461Z,101557.42
2023-01-29T05:07:51.510Z,101555.71
2023-01-29T05:10:23.377Z,101548.86
2023-01-29T05:12:58.316Z,101546.04
2023-01-29T05:15:33.803Z,101550.61
2023-01-29T05:18:06.688Z,101551.20
2023-01-29T05:20:40.259Z,101542.45
2023-01-29T05:23:17.711Z,101540.73
2023-01-29T05:25:50.132Z,101540.31
2023-01-29T05:28:21.070Z,101548.08
2023-01-29T05:30:53.903Z,101542.21
2023-01-29T05:33:28.388Z,101539.77
2023-01-29T05:36:00.743Z,101550.27
2023-01-29T05:38:31.365Z,101549.31
2023-01-29T05:41:02.089Z,101549.10
2023-01-29T05:43:32.738Z,101550.44
2023-01-29T05:46:03.419Z,101555.08
2023-01-29T05:48:34.113Z,101554.25
2023-01-29T05:51:05.681Z,101548.36
2023-01-29T05:53:36.337Z,101551.30
2023-01-29T05:56:07.793Z,101557.91
2023-01-29T05:58:38.793Z,101556.02
2023-01-29T06:01:15.212Z,101559.41
2023-01-29T06:03:46.552Z,101573.30
2023-01-29T06:06:17.951Z,101579.56
2023-01-29T06:08:48.838Z,101580.73
2023-01-29T06:11:19.467Z,101583.09
2023-01-29T06:13:50.236Z,101579.46
2023-01-29T06:16:20.920Z,101574.85
2023-01-29T06:18:51.672Z,101569.56
2023-01-29T06:21:22.335Z,101581.23
2023-01-29T06:23:55.318Z,101589.54
2023-01-29T06:26:26.017Z,101599.85
2023-01-29T06:28:56.769Z,101593.96
2023-01-29T06:31:42.729Z,101584.02
2023-01-29T06:34:13.470Z,101588.14
2023-01-29T06:36:44.356Z,101590.77
2023-01-29T06:39:14.995Z,101595.94
2023-01-29T06:41:45.648Z,101595.16
2023-01-29T06:44:16.550Z,101598.83
2023-01-29T06:46:47.160Z,101596.13
2023-01-29T06:49:18.084Z,101591.54
2023-01-29T06:51:48.801Z,101592.50
2023-01-29T06:54:19.447Z,101596.39
2023-01-29T06:56:50.152Z,101592.35
2023-01-29T06:59:20.822Z,101589.09
2023-01-29T07:01:51.518Z,101581.58
2023-01-29T07:04:22.225Z,101582.80
2023-01-29T07:06:52.867Z,101583.54
2023-01-29T07:09:23.507Z,101573.10
2023-01-29T07:11:54.168Z,101561.33
2023-01-29T07:14:24.910Z,101560.52
2023-01-29T07:16:55.530Z,101564.77
2023-01-29T07:19:26.292Z,101565.16
2023-01-29T07:21:56.925Z,101560.02
2023-01-29T07:24:27.707Z,101557.73
2023-01-29T07:26:58.443Z,101550.98
2023-01-29T07:29:29.237Z,101548.48
2023-01-29T07:32:00.261Z,101548.39
2023-01-29T07:34:29.457Z,101541.94
2023-01-29T07:37:00.044Z,101537.80
2023-01-29T07:39:30.735Z,101530.73
2023-01-29T07:42:01.343Z,101535.92
2023-01-29T07:44:32.026Z,101541.77
2023-01-29T07:47:02.731Z,101545.92
2023-01-29T07:49:33.410Z,101544.99
2023-01-29T07:52:04.149Z,101543.83
2023-01-29T07:54:34.797Z,101542.71
2023-01-29T07:57:05.543Z,101540.25
2023-01-29T07:59:36.210Z,101544.55
2023-01-29T08:02:06.940Z,101549.13
2023-01-29T08:04:37.604Z,101551.47
2023-01-29T08:07:08.261Z,101559.38
2023-01-29T08:09:38.919Z,101556.33
2023-01-29T08:12:09.735Z,101564.96
2023-01-29T08:14:40.522Z,101566.55
2023-01-29T08:17:11.167Z,101560.04
2023-01-29T08:19:41.867Z,101552.42
2023-01-29T08:22:12.549Z,101547.92
2023-01-29T08:24:53.685Z,101545.56
2023-01-29T08:27:30.776Z,101547.66
2023-01-29T08:30:01.515Z,101546.70
2023-01-29T08:32:32.173Z,101550.19
2023-01-29T08:35:03.064Z,101550.58
2023-01-29T08:37:33.768Z,101539.14
2023-01-29T08:40:04.992Z,101535.96
2023-01-29T08:42:35.659Z,101530.86
2023-01-29T08:45:09.840Z,101529.44
2023-01-29T08:47:44.683Z,101530.43
2023-01-29T08:50:16.551Z,101528.38
2023-01-29T08:52:47.597Z,101525.13
2023-01-29T08:55:18.763Z,101522.12
2023-01-29T08:57:49.652Z,101516.23
2023-01-29T09:00:23.090Z,101515.33
2023-01-29T09:02:53.687Z,101506.98
2023-01-29T09:05:24.445Z,101513.15
2023-01-29T09:07:56.336Z,101521.08
2023-01-29T09:10:28.912Z,101528.98
2023-01-29T09:12:59.620Z,101531.15
2023-01-29T09:15:30.484Z,101532.14
2023-01-29T09:18:04.871Z,101529.29
2023-01-29T09:20:35.503Z,101521.51
2023-01-29T09:23:08.751Z,101517.19
2023-01-29T09:25:39.540Z,101522.27
2023-01-29T09:28:10.243Z,101520.66
2023-01-29T09:30:40.976Z,101520.08
2023-01-29T09:33:11.882Z,101525.06
2023-01-29T09:35:44.243Z,101519.16
2023-01-29T09:38:15.173Z,101523.08
2023-01-29T09:40:55.020Z,101525.23
2023-01-29T09:43:34.765Z,101523.95
2023-01-29T09:46:12.767Z,101525.41
2023-01-29T09:48:46.271Z,101522.88
2023-01-29T09:51:28.669Z,101520.52
2023-01-29T09:54:11.341Z,101513.03
2023-01-29T09:56:45.113Z,101520.70
2023-01-29T09:59:21.908Z,101523.15
2023-01-29T10:02:01.743Z,101522.53
2023-01-29T10:05:04.785Z,101515.55
2023-01-29T10:08:03.061Z,101510.08
2023-01-29T10:10:47.352Z,101494.17
2023-01-29T10:13:27.283Z,101488.82
2023-01-29T10:16:18.091Z,101489.97
2023-01-29T10:19:17.105Z,101484.54
2023-01-29T10:22:10.932Z,101477.55
2023-01-29T10:24:50.146Z,101475.19
2023-01-29T10:27:21.038Z,101466.04
2023-01-29T10:29:55.331Z,101463.42
2023-01-29T10:32:28.923Z,101466.25
2023-01-29T10:35:05.982Z,101463.90
2023-01-29T10:37:40.334Z,101455.86
2023-01-29T10:40:29.629Z,101445.77
2023-01-29T10:43:11.017Z,101440.92
2023-01-29T10:45:48.907Z,101431.31
2023-01-29T10:48:40.466Z,101435.17
2023-01-29T10:51:22.326Z,101434.39
2023-01-29T10:54:11.080Z,101432.64
2023-01-29T10:56:58.636Z,101435.64
2023-01-29T10:59:52.886Z,101436.17
2023-01-29T11:02:23.949Z,101435.59
2023-01-29T11:04:53.071Z,101432.10
2023-01-29T11:07:23.930Z,101429.33
2023-01-29T11:10:00.417Z,101430.10
2023-01-29T11:12:33.249Z,101428.02
2023-01-29T11:15:13.843Z,101430.55
2023-01-29T11:18:03.915Z,101426.59
2023-01-29T11:20:34.966Z,101434.50
2023-01-29T11:23:07.571Z,101428.74
2023-01-29T11:25:39.048Z,101420.33
2023-01-29T11:28:10.348Z,101414.65
2023-01-29T11:30:41.700Z,101400.63
2023-01-29T11:33:22.083Z,101393.44
2023-01-29T11:35:52.809Z,101395.20
2023-01-29T11:38:26.093Z,101381.89
2023-01-29T11:41:06.732Z,101380.58
2023-01-29T11:43:37.864Z,101372.67
2023-01-29T11:46:14.299Z,101370.20
2023-01-29T11:48:47.067Z,101360.02
2023-01-29T11:51:26.085Z,101359.29
2023-01-29T11:53:59.933Z,101354.08
2023-01-29T11:56:34.623Z,101348.27
2023-01-29T11:59:06.041Z,101349.55
2023-01-29T12:01:40.132Z,101342.40
2023-01-29T12:04:19.485Z,101341.31
2023-01-29T12:06:52.558Z,101336.52
2023-01-29T12:09:25.954Z,101334.43
2023-01-29T12:12:16.442Z,101330.61
2023-01-29T12:14:47.277Z,101322.20
2023-01-29T12:17:24.035Z,101319.42
2023-01-29T12:19:59.027Z,101310.11
2023-01-29T12:22:40.376Z,101312.77
2023-01-29T12:25:18.284Z,101312.81
2023-01-29T12:27:57.667Z,101307.77
2023-01-29T12:30:35.251Z,101312.04
2023-01-29T12:33:26.727Z,101308.27
2023-01-29T12:36:02.907Z,101309.42
2023-01-29T12:38:34.473Z,101298.85
2023-01-29T12:41:14.343Z,101296.21
2023-01-29T12:43:48.844Z,101290.06
2023-01-29T12:46:27.278Z,101287.98
2023-01-29T12:49:02.962Z,101284.13
2023-01-29T12:51:42.217Z,101289.96
2023-01-29T12:54:18.062Z,101289.27
2023-01-29T12:56:53.370Z,101291.10
2023-01-29T12:59:31.578Z,101283.52
2023-01-29T13:02:12.496Z,101275.22
2023-01-29T13:04:46.844Z,101267.23
2023-01-29T13:07:20.978Z,101261.41
2023-01-29T13:09:54.830Z,101258.85
2023-01-29T13:12:26.325Z,101255.94
2023-01-29T13:15:00.172Z,101259.04
2023-01-29T13:17:37.847Z,101254.91
2023-01-29T13:20:16.362Z,101254.83
2023-01-29T13:22:50.353Z,101256.93
2023-01-29T13:25:21.653Z,101255.48
2023-01-29T13:27:52.476Z,101254.88
2023-01-29T13:30:32.359Z,101256.75
2023-01-29T13:35:38.561Z,101259.09
2023-01-29T13:38:25.271Z,101261.27
2023-01-29T13:41:00.667Z,101263.27
2023-01-29T13:43:36.553Z,101261.09
2023-01-29T13:46:12.353Z,101256.27
2023-01-29T13:48:46.766Z,101255.51
2023-01-29T13:51:21.763Z,101252.06
2023-01-29T13:54:00.207Z,101247.89
2023-01-29T13:56:46.475Z,101243.84
2023-01-29T13:59:45.493Z,101244.61
2023-01-29T14:02:32.570Z,101238.84
2023-01-29T14:05:46.314Z,101241.54
2023-01-29T14:08:41.525Z,101243.33
2023-01-29T14:11:36.276Z,101248.48
2023-01-29T14:14:49.307Z,101248.90
2023-01-29T14:17:21.204Z,101241.98
2023-01-29T14:19:54.888Z,101235.20
2023-01-29T14:22:28.482Z,101230.20
2023-01-29T14:25:02.874Z,101230.78
2023-01-29T14:27:35.703Z,101227.86
2023-01-29T14:30:16.638Z,101230.66
2023-01-29T14:32:50.181Z,101232.23
2023-01-29T14:35:23.025Z,101229.55
2023-01-29T14:37:58.086Z,101218.77
2023-01-29T14:40:32.178Z,101223.86
2023-01-29T14:43:06.252Z,101221.67
2023-01-29T14:45:38.541Z,101215.11
2023-01-29T14:48:38.669Z,101218.03
2023-01-29T14:51:12.631Z,101213.15
2023-01-29T14:53:58.792Z,101211.88
2023-01-29T14:56:36.203Z,101203.98
2023-01-29T14:59:19.932Z,101204.40
2023-01-29T15:01:54.851Z,101202.80
2023-01-29T15:04:29.355Z,101202.07
2023-01-29T15:07:03.860Z,101201.15
2023-01-29T15:09:42.476Z,101194.16
2023-01-29T15:12:23.337Z,101195.48
2023-01-29T15:15:05.973Z,101189.00
2023-01-29T15:17:41.711Z,101188.39
2023-01-29T15:20:37.574Z,101180.83
2023-01-29T15:23:25.987Z,101184.77
2023-01-29T15:25:59.953Z,101186.09
2023-01-29T15:28:31.750Z,101178.95
2023-01-29T15:31:05.539Z,101173.79
2023-01-29T15:33:38.059Z,101172.63
2023-01-29T15:36:16.112Z,101170.29
2023-01-29T15:38:46.986Z,101165.59
2023-01-29T15:41:21.171Z,101164.24
2023-01-29T15:43:57.119Z,101165.02
2023-01-29T15:46:30.632Z,101171.23
2023-01-29T15:49:07.687Z,101168.72
2023-01-29T15:51:38.922Z,101170.44
2023-01-29T15:54:15.763Z,101174.92
2023-01-29T15:56:50.317Z,101176.20
2023-01-29T15:59:24.711Z,101171.02
2023-01-29T16:01:55.720Z,101170.11
2023-01-29T16:04:26.773Z,101171.40
2023-01-29T16:06:59.330Z,101163.98
2023-01-29T16:09:30.428Z,101160.30
2023-01-29T16:11:59.711Z,101155.97
2023-01-29T16:14:31.579Z,101152.22
2023-01-29T16:17:21.683Z,101149.34
2023-01-29T16:19:59.321Z,101144.18
2023-01-29T16:22:32.702Z,101141.38
2023-01-29T16:25:07.028Z,101141.86
2023-01-29T16:27:37.812Z,101139.76
2023-01-29T16:30:14.401Z,101138.48
2023-01-29T16:32:45.576Z,101131.05
2023-01-29T16:35:15.936Z,101125.27
2023-01-29T16:37:50.822Z,101120.36
2023-01-29T16:40:30.276Z,101119.70
2023-01-29T16:43:37.510Z,101117.39
2023-01-29T16:46:32.239Z,101111.79
2023-01-29T16:49:20.307Z,101116.28
2023-01-29T16:51:51.278Z,101119.75
2023-01-29T16:54:24.439Z,101119.96
2023-01-29T16:57:00.196Z,101121.63
2023-01-29T16:59:34.447Z,101122.21
2023-01-29T17:02:15.166Z,101124.57
2023-01-29T17:04:47.653Z,101130.08
2023-01-29T17:07:19.039Z,101127.42
2023-01-29T17:09:53.262Z,101125.58
2023-01-29T17:12:26.346Z,101125.59
2023-01-29T17:14:59.319Z,101130.60
2023-01-29T17:17:35.524Z,101118.90
2023-01-29T17:20:17.263Z,101115.69
2023-01-29T17:22:48.270Z,101113.66
2023-01-29T17:25:19.349Z,101110.60
2023-01-29T17:27:50.189Z,101112.41
2023-01-29T17:30:31.914Z,101105.13
2023-01-29T17:33:09.353Z,101099.96
2023-01-29T17:35:40.165Z,101100.92
2023-01-29T17:38:24.261Z,101098.77
2023-01-29T17:41:00.259Z,101093.61
2023-01-29T17:43:30.938Z,101095.23
2023-01-29T17:46:01.691Z,101089.70
2023-01-29T17:48:32.960Z,101090.14
2023-01-29T17:51:05.813Z,101086.27
2023-01-29T17:53:45.247Z,101083.42
2023-01-29T17:56:21.532Z,101080.83
2023-01-29T17:58:52.140Z,101079.39
2023-01-29T18:01:23.308Z,101080.56
2023-01-29T18:03:52.407Z,101075.74
2023-01-29T18:06:29.745Z,101070.13
2023-01-29T18:09:00.580Z,101069.65
2023-01-29T18:11:31.679Z,101065.95
2023-01-29T18:14:11.368Z,101063.13
2023-01-29T18:16:46.813Z,101058.66
2023-01-29T18:19:21.976Z,101052.94
2023-01-29T18:21:53.239Z,101050.79
2023-01-29T18:24:22.316Z,101043.58
2023-01-29T18:26:53.143Z,101030.20
2023-01-29T18:29:24.060Z,101025.01
2023-01-29T18:31:54.771Z,101011.90
2023-01-29T18:34:25.562Z,101009.79
2023-01-29T18:36:56.395Z,101003.70
2023-01-29T18:39:27.478Z,101003.76
2023-01-29T18:41:58.768Z,101005.46
2023-01-29T18:44:29.668Z,101001.60
2023-01-29T18:47:00.702Z,100990.23
2023-01-29T18:49:31.771Z,100989.53
2023-01-29T18:52:02.669Z,100985.25
2023-01-29T18:54:33.378Z,100978.11
2023-01-29T18:57:13.304Z,100975.48
2023-01-29T18:59:54.865Z,100974.14
2023-01-29T19:02:25.806Z,100972.66
2023-01-29T19:04:56.693Z,100973.09
2023-01-29T19:07:27.658Z,100970.77
2023-01-29T19:09:58.324Z,100968.26
2023-01-29T19:12:29.377Z,100960.29
2023-01-29T19:15:00.044Z,100956.21
2023-01-29T19:17:30.942Z,100957.08
2023-01-29T19:20:01.593Z,100950.50
2023-01-29T19:22:35.355Z,100952.73
2023-01-29T19:25:08.556Z,100950.86
2023-01-29T19:27:39.369Z,100945.48
2023-01-29T19:30:12.193Z,100944.41
2023-01-29T19:32:42.860Z,100943.98
2023-01-29T19:35:13.471Z,100947.92
2023-01-29T19:37:44.227Z,100949.20
2023-01-29T19:40:15.295Z,100950.81
2023-01-29T19:42:44.477Z,100951.77
2023-01-29T19:45:15.552Z,100947.63
2023-01-29T19:47:46.413Z,100951.74
2023-01-29T19:50:18.913Z,100948.68
2023-01-29T19:52:51.523Z,100944.73
2023-01-29T19:55:22.444Z,100938.04
2023-01-29T19:57:55.441Z,100935.71
2023-01-29T20:00:26.307Z,100927.25
2023-01-29T20:03:00.964Z,100928.02
2023-01-29T20:05:35.087Z,100920.37
2023-01-29T20:08:06.250Z,100916.89
2023-01-29T20:10:37.037Z,100917.16
2023-01-29T20:13:07.676Z,100919.30
2023-01-29T20:15:38.535Z,100917.33
2023-01-29T20:18:09.236Z,100912.88
2023-01-29T20:20:42.265Z,100909.57
2023-01-29T20:23:16.806Z,100904.71
2023-01-29T20:25:51.251Z,100897.71
2023-01-29T20:28:22.444Z,100898.35
2023-01-29T20:30:51.784Z,100890.06
2023-01-29T20:33:22.801Z,100881.23
2023-01-29T20:35:57.226Z,100876.95
2023-01-29T20:38:28.568Z,100872.73
2023-01-29T20:41:35.296Z,100870.37
2023-01-29T20:43:55.912Z,100868.13
2023-01-29T20:46:26.751Z,100863.16
2023-01-29T20:48:57.442Z,100865.08
2023-01-29T20:51:28.092Z,100866.04
2023-01-29T20:53:59.281Z,100860.58
2023-01-29T20:56:38.448Z,100856.88
2023-01-29T20:59:13.231Z,100852.02
2023-01-29T21:01:44.142Z,100848.65
2023-01-29T21:04:14.936Z,100845.94
2023-01-29T21:06:45.563Z,100841.06
2023-01-29T21:09:16.184Z,100834.91
2023-01-29T21:11:48.045Z,100830.59
2023-01-29T21:14:18.722Z,100826.80
2023-01-29T21:16:49.454Z,100816.84
2023-01-29T21:19:20.185Z,100817.70
2023-01-29T21:21:50.936Z,100806.95
2023-01-29T21:24:21.738Z,100803.47
2023-01-29T21:26:52.807Z,100799.52
2023-01-29T21:29:21.931Z,100795.34
2023-01-29T21:31:52.663Z,100787.60
2023-01-29T21:34:23.501Z,100783.81
2023-01-29T21:36:54.153Z,100775.04
2023-01-29T21:39:24.873Z,100768.52
2023-01-29T21:41:55.627Z,100763.86
2023-01-29T21:44:26.759Z,100762.59
2023-01-29T21:46:55.904Z,100756.49
2023-01-29T21:49:26.665Z,100757.12
2023-01-29T21:51:57.285Z,100747.94
2023-01-29T21:54:28.066Z,100751.02
2023-01-29T21:56:58.678Z,100750.87
2023-01-29T21:59:29.671Z,100743.13
2023-01-29T22:02:00.948Z,100735.80
2023-01-29T22:04:32.189Z,100733.13
2023-01-29T22:07:02.807Z,100721.58
2023-01-29T22:09:33.487Z,100716.72
2023-01-29T22:12:05.442Z,100712.67
2023-01-29T22:14:36.489Z,100710.04
2023-01-29T22:17:07.991Z,100707.69
2023-01-29T22:19:38.676Z,100702.94
2023-01-29T22:22:12.146Z,100700.48
2023-01-29T22:24:43.177Z,100695.30
2023-01-29T22:27:12.531Z,100688.94
2023-01-29T22:29:43.599Z,100682.66
2023-01-29T22:32:13.329Z,100682.31
2023-01-29T22:34:44.082Z,100681.56
2023-01-29T22:37:15.090Z,100664.30
2023-01-29T22:39:45.873Z,100658.69
2023-01-29T22:42:18.179Z,100649.55
2023-01-29T22:44:48.957Z,100645.08
2023-01-29T22:47:19.574Z,100635.62
2023-01-29T22:49:50.251Z,100626.85
2023-01-29T22:52:23.615Z,100619.54
2023-01-29T22:54:54.298Z,100611.69
2023-01-29T22:57:24.946Z,100606.92
2023-01-29T22:59:55.595Z,100607.95
2023-01-29T23:02:26.325Z,100603.67
2023-01-29T23:04:57.078Z,100598.55
2023-01-29T23:07:27.841Z,100591.12
2023-01-29T23:09:58.496Z,100584.92
2023-01-29T23:12:29.103Z,100577.97
2023-01-29T23:14:59.742Z,100573.75
2023-01-29T23:17:30.484Z,100559.98
2023-01-29T23:20:01.161Z,100553.56
2023-01-29T23:22:31.813Z,100545.71
2023-01-29T23:25:02.622Z,100543.16
2023-01-29T23:27:33.347Z,100529.90
2023-01-29T23:30:04.478Z,100527.77
2023-01-29T23:32:35.263Z,100520.39
2023-01-29T23:35:07.106Z,100517.47
2023-01-29T23:37:37.725Z,100513.34
2023-01-29T23:40:17.612Z,100505.39
2023-01-29T23:42:49.225Z,100503.84
2023-01-29T23:45:19.910Z,100495.99
2023-01-29T23:47:50.852Z,100493.31
2023-01-29T23:50:28.278Z,100494.98
2023-01-29T23:52:58.938Z,100490.73
2023-01-29T23:55:29.634Z,100488.86
2023-01-29T23:58:00.261Z,100484.86
